Weather History for Novato, CA

Change the Weather History Date:

Sunday, April 28, 2013

  Actual Average (KAPC) Record (KAPC)
Temperature  
Mean Temperature 60 °F 56 °F  
Max Temperature 84 °F 70 °F 82 °F (2008)
Min Temperature 37 °F 43 °F 32 °F (1970)
Degree Days  
Heating Degree Days 4    
Month to date heating degree days  
Since 1 July heating degree days  
Cooling Degree Days 0    
Month to date cooling degree days  
Year to date cooling degree days  
Growing Degree Days 10 (Base 50)    
Moisture  
Dew Point 51 °F    
Average Humidity 75    
Maximum Humidity 100    
Minimum Humidity 39    
Precipitation  
Precipitation 0.00 in - 0.90 in (1954)
Month to date precipitation  
Year to date precipitation  
Since 1 July precipitation  
Sea Level Pressure  
Sea Level Pressure 30.00 in    
Wind  
Wind Speed 2 mph (NNE)    
Max Wind Speed 15 mph    
Max Gust Speed -    
Visibility 9 miles    
Events Fog    
T = Trace of Precipitation, MM = Missing Value Source: NWS Daily Summary

Daily Weather History Graph

Daily Weather History Graph

Search for Another Location

Airport:

Trip Planner

Search our weather history database for the weather conditions in past years. The results will help you decide how hot, cold, wet, or windy it might be!

Date:

Astronomy

Apr. 28, 2013 Rise Set
Actual Time 6:16 AM PDT 7:58 PM PDT
Civil Twilight 5:48 AM PDT 8:27 PM PDT
Nautical Twilight 5:14 AM PDT 9:01 PM PDT
Astronomical Twilight 4:38 AM PDT 9:37 PM PDT
Moon 11:32 PM PDT (4/28) 8:40 AM PDT (4/28)
Length of Visible Light 14h 38m
Length of Day
13h 41m
Waning Gibbous, 88% of the Moon is Illuminated
Apr 28
Waning Gibbous
May 2
Last Quarter
May 9
New
May 17
First Quarter
May 24
Full

Hourly Weather History & Observations

Time (PDT) Temp. Heat Index Dew Point Humidity Pressure Visibility Wind Dir Wind Speed Gust Speed Precip Events Conditions
12:15 AM 46.4 °F - 46.4 °F 100% 30.09 in 9.0 mi Calm Calm - N/A   Clear
12:35 AM 46.4 °F - 46.4 °F 100% 30.09 in 10.0 mi Calm Calm - N/A   Clear
12:55 AM 46.4 °F - 46.4 °F 100% 30.09 in 10.0 mi Calm Calm - N/A   Clear
1:15 AM 46.4 °F - 46.4 °F 100% 30.09 in 10.0 mi Calm Calm - N/A   Clear
1:35 AM 44.6 °F - 44.6 °F 100% 30.08 in 9.0 mi Calm Calm - N/A   Clear
1:55 AM 44.6 °F - 44.6 °F 100% 30.08 in 8.0 mi Calm Calm - N/A   Clear
2:15 AM 42.8 °F - 42.8 °F 100% 30.08 in 10.0 mi Calm Calm - N/A   Clear
2:35 AM 44.6 °F - 44.6 °F 100% 30.07 in 7.0 mi Calm Calm - N/A   Clear
2:55 AM 44.6 °F - 44.6 °F 100% 30.07 in 9.0 mi Calm Calm - N/A   Clear
3:15 AM 41.0 °F - 41.0 °F 100% 30.06 in 3.0 mi Calm Calm - N/A   Clear
3:35 AM 41.0 °F - 41.0 °F 100% 30.06 in 10.0 mi Calm Calm - N/A   Clear
3:55 AM 42.8 °F - 42.8 °F 100% 30.06 in 0.5 mi Calm Calm - N/A Fog Fog
4:15 AM 41.0 °F - 41.0 °F 100% 30.06 in 0.5 mi Calm Calm - N/A Fog Fog
4:35 AM 42.8 °F - 42.8 °F 100% 30.06 in 10.0 mi Calm Calm - N/A   Partly Cloudy
4:55 AM 44.6 °F - 44.6 °F 100% 30.05 in 10.0 mi Calm Calm - N/A   Clear
5:15 AM 44.6 °F - 44.6 °F 100% 30.05 in 7.0 mi Calm Calm - N/A   Clear
5:35 AM 37.4 °F - 37.4 °F 100% 30.05 in 0.2 mi Calm Calm - N/A Fog Fog
6:15 AM 41.0 °F - 41.0 °F 100% 30.05 in 0.2 mi Calm Calm - N/A Fog Fog
6:35 AM 42.8 °F - 42.8 °F 100% 30.05 in 0.5 mi Calm Calm - N/A Fog Fog
6:55 AM 42.8 °F - 42.8 °F 100% 30.05 in 7.0 mi Calm Calm - N/A   Clear
7:15 AM 41.0 °F - 41.0 °F 100% 30.06 in 5.0 mi Calm Calm - N/A   Clear
7:35 AM 44.6 °F - 44.6 °F 100% 30.06 in 6.0 mi Calm Calm - N/A   Clear
7:55 AM 46.4 °F - 46.4 °F 100% 30.07 in 8.0 mi Calm Calm - N/A   Clear
8:15 AM 48.2 °F - 48.2 °F 100% 30.07 in 9.0 mi NNE 3.5 mph - N/A   Clear
8:35 AM 50.0 °F - 50.0 °F 100% 30.07 in 8.0 mi NE 3.5 mph - N/A   Scattered Clouds
8:55 AM 50.0 °F - 50.0 °F 100% 30.07 in 9.0 mi Calm Calm - N/A   Scattered Clouds
9:15 AM 53.6 °F - 53.6 °F 100% 30.07 in 10.0 mi Calm Calm - N/A   Partly Cloudy
9:35 AM 55.4 °F - 50.0 °F 82% 30.07 in 10.0 mi Calm Calm - N/A   Clear
9:55 AM 57.2 °F - 53.6 °F 88% 30.06 in 10.0 mi Calm Calm - N/A   Clear
10:15 AM 59.0 °F - 53.6 °F 82% 30.06 in 10.0 mi SE 3.5 mph - N/A   Clear
10:35 AM 60.8 °F - 53.6 °F 77% 30.06 in 10.0 mi Calm Calm - N/A   Clear
10:55 AM 62.6 °F - 53.6 °F 72% 30.06 in 10.0 mi Calm Calm - N/A   Clear
11:15 AM 64.4 °F - 53.6 °F 68% 30.05 in 10.0 mi South 3.5 mph - N/A   Clear
11:35 AM 66.2 °F - 53.6 °F 64% 30.05 in 10.0 mi Calm Calm - N/A   Clear
11:55 AM 68.0 °F - 53.6 °F 60% 30.04 in 10.0 mi Calm Calm - N/A   Clear
12:15 PM 69.8 °F - 55.4 °F 60% 30.04 in 10.0 mi ENE 3.5 mph - N/A   Clear
12:35 PM 71.6 °F - 55.4 °F 57% 30.03 in 10.0 mi East 3.5 mph - N/A   Clear
12:55 PM 73.4 °F - 55.4 °F 53% 30.02 in 10.0 mi Calm Calm - N/A   Clear
1:15 PM 75.2 °F - 55.4 °F 50% 30.01 in 10.0 mi ENE 3.5 mph - N/A   Clear
1:35 PM 77.0 °F - 55.4 °F 47% 30.00 in 10.0 mi North 4.6 mph - N/A   Clear
1:55 PM 78.8 °F - 55.4 °F 44% 30.00 in 10.0 mi NE 4.6 mph - N/A   Clear
2:15 PM 80.6 °F 80.5 °F 55.4 °F 42% 29.99 in 10.0 mi NE 3.5 mph - N/A   Clear
2:35 PM 80.6 °F 80.8 °F 57.2 °F 45% 29.98 in 10.0 mi NE 4.6 mph - N/A   Clear
2:55 PM 82.4 °F 82.5 °F 59.0 °F 45% 29.96 in 10.0 mi NE 4.6 mph - N/A   Clear
3:15 PM 82.4 °F 82.5 °F 59.0 °F 45% 29.95 in 10.0 mi North 3.5 mph - N/A   Clear
3:35 PM 84.2 °F 83.8 °F 59.0 °F 42% 29.94 in 10.0 mi East 4.6 mph - N/A   Clear
3:55 PM 84.2 °F 83.8 °F 59.0 °F 42% 29.93 in 10.0 mi North 5.8 mph - N/A   Clear
4:15 PM 82.4 °F 82.5 °F 59.0 °F 45% 29.93 in 10.0 mi North 9.2 mph - N/A   Clear
4:35 PM 80.6 °F 81.1 °F 59.0 °F 48% 29.92 in 10.0 mi North 12.7 mph - N/A   Clear
4:55 PM 80.6 °F 80.8 °F 57.2 °F 45% 29.92 in 10.0 mi North 15.0 mph - N/A   Clear
5:15 PM 78.8 °F - 55.4 °F 44% 29.92 in 10.0 mi North 15.0 mph - N/A   Clear
5:35 PM 78.8 °F - 53.6 °F 42% 29.91 in 10.0 mi North 15.0 mph - N/A   Clear
5:55 PM 78.8 °F - 51.8 °F 39% 29.91 in 10.0 mi North 9.2 mph - N/A   Clear
6:15 PM 80.6 °F 80.3 °F 53.6 °F 39% 29.91 in 10.0 mi NNW 9.2 mph - N/A   Clear
6:35 PM 78.8 °F - 53.6 °F 42% 29.90 in 10.0 mi North 8.1 mph - N/A   Clear
6:55 PM 77.0 °F - 53.6 °F 44% 29.90 in 10.0 mi NNW 4.6 mph - N/A   Clear
7:15 PM 75.2 °F - 53.6 °F 47% 29.89 in 10.0 mi North 5.8 mph - N/A   Clear
7:35 PM 73.4 °F - 53.6 °F 50% 29.89 in 10.0 mi Calm Calm - N/A   Clear
7:55 PM 71.6 °F - 53.6 °F 53% 29.88 in 10.0 mi Calm Calm - N/A   Clear
8:15 PM 68.0 °F - 53.6 °F 60% 29.88 in 10.0 mi NNW 3.5 mph - N/A   Clear
8:35 PM 68.0 °F - 53.6 °F 60% 29.89 in 10.0 mi Calm Calm - N/A   Clear
8:55 PM 66.2 °F - 53.6 °F 64% 29.89 in 10.0 mi Calm Calm - N/A   Clear
9:15 PM 64.4 °F - 53.6 °F 68% 29.89 in 10.0 mi Calm Calm - N/A   Clear
9:35 PM 62.6 °F - 53.6 °F 72% 29.90 in 10.0 mi North 3.5 mph - N/A   Clear
9:55 PM 59.0 °F - 53.6 °F 82% 29.90 in 10.0 mi NE 3.5 mph - N/A   Clear
10:15 PM 59.0 °F - 53.6 °F 82% 29.90 in 10.0 mi North 4.6 mph - N/A   Clear
10:35 PM 55.4 °F - 53.6 °F 94% 29.90 in 10.0 mi NNW 5.8 mph - N/A   Clear
10:55 PM 59.0 °F - 53.6 °F 82% 29.90 in 10.0 mi Calm Calm - N/A   Clear
11:15 PM 57.2 °F - 53.6 °F 88% 29.89 in 10.0 mi Calm Calm - N/A   Clear
11:35 PM 55.4 °F - 53.6 °F 94% 29.89 in 10.0 mi Calm Calm - N/A   Clear
11:55 PM 55.4 °F - 53.6 °F 94% 29.89 in 10.0 mi Calm Calm - N/A   Clear